Redwood City, CA (94065)

4:24 AM PST on December 18, 2014 (GMT -0800)
Redwood Shores | Change Station
CLOSE
Current Station
Personal Weather Station
Location: Redwood City, CA
Elevation: 5 ft
Nearby Weather Stations

Elev 5 ft 37.53 °N, 122.25 °W | Updated 60 seconds ago

Overcast
Overcast
52.0 °F
Feels Like 52.0 °F
N
0.0
Wind Variable Wind from NNE
Gusts 2.9 mph

Today
High -- | Low -- °F
--% Chance of Precip.
Yesterday
High -- | Low -- °F
Precip. -- in
7:18 AM 4:53 PM
Waning Crescent, 15% visible
Pressure 30.08 in
Visibility 9.0 miles
Clouds Overcast 3100 ft
Dew Point 51 °F
Humidity 97%
Rainfall 0.00 in
Snow Depth Not available.
UV 0 out of 12
Pollen 1.30 out of 12
Air Quality Not available.
Flu Activity Not available.
METAR KSQL 181210Z AUTO 00000KT 9SM OVC031 11/09 A3008 RMK AO2

More Conditions Fewer Conditions

Pressure 30.08 in
Visibility 9.0 miles
Clouds Overcast 3100 ft
Dew Point 51 °F
Humidity 97%
Rainfall 0.00 in
Snow Depth Not available.
UV 0 out of 12
Pollen 1.30 out of 12
Air Quality Not available.
Flu Activity Not available.
METAR KSQL 181210Z AUTO 00000KT 9SM OVC031 11/09 A3008 RMK AO2

More Conditions Fewer Conditions

10-Day Weather Forecast

Almanac

Astronomy

Dec. 18, 2014 Rise Set
Actual Time
Civil Twilight
Nautical Twilight
Astronomical Twilight
Moon
Length of Visible Light
Length of Day
Tomorrow will be .
, % of the Moon is Illuminated

Today's Extremes

State Highs State Lows

Community

WunderPhotos

Upload Photos

1,778,923 photos uploaded!

WunderBlogs® & News

Nearby

Air Quality

  Air Quality AQ Index Pollutant
Not available.

Snow Depth

Station Depth Elevation

Earthquake Activity

City Distance Mag. Time & Date
Minimum magnitude displayed is 2.5.

Coastal Water Temperatures

Place Temperature

Nearby Weather Stations